Bradbury, Illinois
Current Conditions -  °F | °C
As of 11:53 AM on Saturday 20 Dec 2014 (Local Time) from KMTO Reporting Station
Overcast Overcast  
Wind Chill: 29°   Ceiling: 6000
Heat Index: 33°   Visibility: 10mi
Dew Point: 26°   Wind: 5mph
Humidity: 75%   Direction: 180°S
Pressure: 30.27"   Gusts: NA
Location:  39.2896°N, 88.2485°W
Report Text: KMTO 201753Z AUTO 18004KT 10SM OVC060 01/M03 A3027 RMK AO2 SLP256 T00061033 10006 21017 58009
Loading
Personal Weather Stations






























Interactive Weather Map New forecast layout! Learn more

10-Day Weather Forecast

Advertisements
Track Severe Weather on mobile